Milano, Texas
Current Conditions -  °F | °C
As of 1:15 AM on Saturday 20 Dec 2014 (Local Time) from KT35 Reporting Station
Overcast Overcast  
Wind Chill: 44°   Ceiling: 1000
Heat Index: 48°   Visibility: 7mi
Dew Point: 46°   Wind: 9mph
Humidity: 93%   Direction: 30°NNE
Pressure: 30.19"   Gusts: NA
Location:  30.71°N, 96.86°W
Report Text: KT35 200715Z AUTO 03008KT 7SM BKN010 OVC013 09/08 A3019 RMK AO2 T00910080
Loading
Personal Weather Stations






























Interactive Weather Map New forecast layout! Learn more

10-Day Weather Forecast

Advertisements
Track Severe Weather on mobile